Pagrindinis puslapis
METAR-TAF:

METAR-TAF

Oro uostai :

Sundsvalis-Herniosandas, Švedija

platuma: 62-32N, ilguma: 017-27E, Aukštis: 4 m

Dabartinis oras

Ataskaita buvo paskelbta 38 minutes, ne 06:20 UTC
Vėjas 4 kt iš Rytų/Pietryčių
Temperatūra 16°C
Drėgmė 59%
Slėgis 1022 hPa
Matomumas 10 km arba daugiau

METAR: ESNN 240620Z AUTO 12004KT 9999 NCD 16/08 Q1022

Laikas: 08:58 (06:58 UTC)

Prognozė

Ataskaita buvo paskelbta 1 valandą ir 28 minutes, ne 05:30 UTC
Prognozė galioja nuo 24 metu 06 UTC su 24 metu 15 UTC
Vėjas 3 kt nuo kintamojo kryptimis
Matomumas 10 km arba daugiau
nėra debesų žemiau 1500 m ir nėra kamuolinių lietaus debesų
Tikimybė 40%
nuo 24 metu 10 UTC su 24 metu 12 UTC
Išsisklaidę debesys ne aukštis 5000 ft, Liūtiniai kamuoliniai debesys.
lietus,

TAF: ESNN 240530Z 2406/2415 VRB03KT CAVOK PROB40 2410/2412 SHRA SCT050CB

Orai ataskaitas ir orų prognozės (METAR, TAF).

turimą stotys yra geltonos ir raudonos taškus žemėlapyje.

Perkelti pele per norėdami pamatyti stoties vardą.

Tada spustelėkite, norėdami matyti oro stebėjimo ir prognozės.

Norėdami pakeisti žemėlapį: spustelėkite ant žalios mygtukų su juodo kryžiaus žemyn,; žalią mygtuką su brūkšneliu, jei norite nutolinti; arba žalių rodyklių gretimoms žemėlapius.


METAR-TAF: